Lawton, OK (73501)

2:58 AM CDT on March 30, 2017 (GMT -0500)
Liberty Hights | | Change Station
Active Advisory: Flood Warning

Elev 1184 ft 34.62 °N, 98.41 °W | Updated 4 seconds ago

Clear
Clear
48.4 °F
Feels Like 46 °F
N
5.1
Wind Variable Wind from NW
Gusts 7.4 mph

Today
High -- | Low -- °F
--% Chance of Precip.
Yesterday
High -- | Low -- °F
Precip. -- in
Pressure 29.82 in
Visibility 10.0 miles
Clouds Clear
Windchill 46 °F
Dew Point 30 °F
Humidity 49%
Rainfall 0.00 in
Snow Depth Not available.
7:22 AM 7:53 PM
Waxing Crescent, 7% visible
METAR KLAW 300753Z AUTO 28009KT 10SM CLR 09/06 A2982 RMK AO2 SLP097 T00890061
Pressure 29.82 in
Visibility 10.0 miles
Clouds Clear
Windchill 46 °F
Dew Point 30 °F
Humidity 49%
Rainfall 0.00 in
Snow Depth Not available.
7:22 AM 7:53 PM
Waxing Crescent, 7% visible
METAR KLAW 300753Z AUTO 28009KT 10SM CLR 09/06 A2982 RMK AO2 SLP097 T00890061

Get Your Daily Forecast Email!

Thanks for signing up!

Be on the lookout for a verification email in your inbox.

You'll start receiving severe weather alerts in your inbox..

×

10-Day Weather Forecast

Almanac

Astronomy

Mar. 30, 2017 Rise Set
Actual Time
Civil Twilight
Nautical Twilight
Astronomical Twilight
Moon
Length of Visible Light
Length of Day
Tomorrow will be .
, % of the Moon is Illuminated

Today's Extremes

State Highs State Lows

Community

WunderPhotos

Upload Photos

1,962,540 photos uploaded!

WunderBlog® & News

Nearby

Air Quality

  Air Quality AQ Index Pollutant
Not available.

Snow Depth

Station Depth Elevation

Earthquake Activity

City Distance Mag. Time & Date
Minimum magnitude displayed is 2.5.

Earthquake Activity

City Distance Mag. Time & Date
Minimum magnitude displayed is 2.5.

Coastal Water Temperatures

Place Temperature

Stations

Nearby Weather Stations

Station Location Temp. Windchill Dew Point Humidity Wind Precip. Elev Updated Type
                   

Watches & Warnings

Flood Warning
Issued: 2:52 AM CDT Mar. 30, 2017 – National Weather Service

... Observed flooding increased from moderate to major severity...

the Flood Warning continues for
the east Cache creek near Walters.

* Until this evening... or until the warning is cancelled.

* At 2:30 am Thursday the stage was 26.2 feet.

* Major flooding is occurring and moderate flooding is forecast.

* Flood stage is 21.0 feet.

* Forecast... the east Cache creek has crested and will continue to
fall. The east Cache creek will fall below flood stage late
Thursday afternoon.

* Impact... at 26.0 feet... valley-wide flooding of croplands...
pastures... and local roads occurs in southern Comanche County and
Cotton County and is accompanied by flood depths up to 5 feet with
dangerous currents.



Lat... Lon 3422 9837 3421 9823 3440 9823 3451 9831
      3451 9846 3439 9836